地図

経路データ

SID SEASON NUMBER BASIN SUBBASIN NAME ISO_TIME NATURE LAT LON WMO_WIND WMO_PRES WMO_AGENCY TRACK_TYPE DIST2LAND LANDFALL IFLAG USA_AGENCY USA_ATCF_ID USA_LAT USA_LON USA_RECORD USA_STATUS USA_WIND USA_PRES USA_SSHS USA_R34_NE USA_R34_SE USA_R34_SW USA_R34_NW USA_R50_NE USA_R50_SE USA_R50_SW USA_R50_NW USA_R64_NE USA_R64_SE USA_R64_SW USA_R64_NW USA_POCI USA_ROCI USA_RMW USA_EYE TOKYO_LAT TOKYO_LON TOKYO_GRADE TOKYO_WIND TOKYO_PRES TOKYO_R50_DIR TOKYO_R50_LONG TOKYO_R50_SHORT TOKYO_R30_DIR TOKYO_R30_LONG TOKYO_R30_SHORT TOKYO_LAND CMA_LAT CMA_LON CMA_CAT CMA_WIND CMA_PRES HKO_LAT HKO_LON HKO_CAT HKO_WIND HKO_PRES NEWDELHI_LAT NEWDELHI_LON NEWDELHI_GRADE NEWDELHI_WIND NEWDELHI_PRES NEWDELHI_CI NEWDELHI_DP NEWDELHI_POCI REUNION_LAT REUNION_LON REUNION_TYPE REUNION_WIND REUNION_PRES REUNION_TNUM REUNION_CI REUNION_RMW REUNION_R34_NE REUNION_R34_SE REUNION_R34_SW REUNION_R34_NW REUNION_R50_NE REUNION_R50_SE REUNION_R50_SW REUNION_R50_NW REUNION_R64_NE REUNION_R64_SE REUNION_R64_SW REUNION_R64_NW BOM_LAT BOM_LON BOM_TYPE BOM_WIND BOM_PRES BOM_TNUM BOM_CI BOM_RMW BOM_R34_NE BOM_R34_SE BOM_R34_SW BOM_R34_NW BOM_R50_NE BOM_R50_SE BOM_R50_SW BOM_R50_NW BOM_R64_NE BOM_R64_SE BOM_R64_SW BOM_R64_NW BOM_ROCI BOM_POCI BOM_EYE BOM_POS_METHOD BOM_PRES_METHOD NADI_LAT NADI_LON NADI_CAT NADI_WIND NADI_PRES WELLINGTON_LAT WELLINGTON_LON WELLINGTON_WIND WELLINGTON_PRES DS824_LAT DS824_LON DS824_STAGE DS824_WIND DS824_PRES TD9636_LAT TD9636_LON TD9636_STAGE TD9636_WIND TD9636_PRES TD9635_LAT TD9635_LON TD9635_WIND TD9635_PRES TD9635_ROCI NEUMANN_LAT NEUMANN_LON NEUMANN_CLASS NEUMANN_WIND NEUMANN_PRES MLC_LAT MLC_LON MLC_CLASS MLC_WIND MLC_PRES USA_GUST BOM_GUST BOM_GUST_PER REUNION_GUST REUNION_GUST_PER USA_SEAHGT USA_SEARAD_NE USA_SEARAD_SE USA_SEARAD_SW USA_SEARAD_NW STORM_SPEED STORM_DIR
1967249N14303 1967 95 NA NA BEULAH 1967-09-05 12:00:00 TS 13.7000 -57.0000 25 hurdat_atl main 549 524 O_____________ hurdat_atl AL131967 13.4000 -57.0000 TD 25 -1 7 266
1967249N14303 1967 95 NA NA BEULAH 1967-09-05 15:00:00 TS 13.6751 -57.3563 main 515 491 P_____________ AL131967 13.4001 -57.3000 TD 25 -1 7 266
1967249N14303 1967 95 NA NA BEULAH 1967-09-05 18:00:00 TS 13.6500 -57.7000 25 1010 hurdat_atl main 491 460 O_____________ hurdat_atl AL131967 13.4000 -57.6000 TD 25 1010 -1 7 266
1967249N14303 1967 95 NA NA BEULAH 1967-09-05 21:00:00 TS 13.6249 -58.0250 main 460 437 P_____________ AL131967 13.4000 -57.9000 TD 25 -1 6 265
1967249N14303 1967 95 NA NA BEULAH 1967-09-06 00:00:00 TS 13.6000 -58.3500 25 hurdat_atl main 437 409 O_____________ hurdat_atl AL131967 13.4000 -58.2000 TD 25 -1 7 266
1967249N14303 1967 95 NA NA BEULAH 1967-09-06 03:00:00 TS 13.5750 -58.7000 main 409 390 P_____________ AL131967 13.4000 -58.5000 TD 25 -1 7 266
1967249N14303 1967 95 NA NA BEULAH 1967-09-06 06:00:00 TS 13.5500 -59.0500 25 hurdat_atl main 390 358 O_____________ hurdat_atl AL131967 13.4000 -58.8000 TD 25 -1 7 265
1967249N14303 1967 95 NA CS BEULAH 1967-09-06 09:00:00 TS 13.5213 -59.4013 main 358 343 P_____________ AL131967 13.4000 -59.1075 TD 25 -1 6 265
1967249N14303 1967 95 NA CS BEULAH 1967-09-06 12:00:00 TS 13.5000 -59.7000 25 hurdat_atl main 343 335 O_____________ hurdat_atl AL131967 13.4000 -59.4000 TD 25 -1 5 266
1967249N14303 1967 95 NA CS BEULAH 1967-09-06 15:00:00 TS 13.4887 -59.9013 main 335 331 P_____________ AL131967 13.3925 -59.6725 TD 27 -1 3 270
1967249N14303 1967 95 NA CS BEULAH 1967-09-06 18:00:00 TS 13.5000 -60.0500 30 hurdat_atl main 331 325 O_____________ hurdat_atl AL131967 13.4000 -59.9000 TD 30 -1 3 280
1967249N14303 1967 95 NA CS BEULAH 1967-09-06 21:00:00 TS 13.5425 -60.2075 main 325 325 P_____________ AL131967 13.4425 -60.0650 TD 30 -1 3 289
1967249N14303 1967 95 NA CS BEULAH 1967-09-07 00:00:00 TS 13.6000 -60.3500 30 1006 hurdat_atl main 333 329 O_____________ hurdat_atl AL131967 13.5000 -60.2000 TD 30 1006 -1 3 291
1967249N14303 1967 95 NA CS BEULAH 1967-09-07 03:00:00 TS 13.6425 -60.4825 main 329 329 P_____________ AL131967 13.5350 -60.3500 TD 30 1006 -1 3 292
1967249N14303 1967 95 NA CS BEULAH 1967-09-07 06:00:00 TS 13.7000 -60.6000 30 hurdat_atl main 338 337 I_____________ hurdat_atl AL131967 13.6000 -60.5000 TD 30 1006 -1 3 306
1967249N14303 1967 95 NA CS BEULAH 1967-09-07 09:00:00 TS 13.7935 -60.6963 main 348 348 P_____________ AL131967 13.7371 -60.6500 TD 32 1006 -1 3 316
1967249N14303 1967 95 NA CS BEULAH 1967-09-07 12:00:00 TS 13.9000 -60.8000 35 1006 hurdat_atl main 359 358 O_____________ hurdat_atl AL131967 13.9000 -60.8000 TS 35 1006 0 3 312
1967249N14303 1967 95 NA CS BEULAH 1967-09-07 14:00:00 TS 13.9639 -60.8894 35 hurdat_atl main 369 369 O_____________ hurdat_atl AL131967 14.0000 -60.9000 L TS 35 0 3 309
1967249N14303 1967 95 NA CS BEULAH 1967-09-07 15:00:00 TS 14.0060 -60.9379 main 369 369 P_____________ AL131967 14.0694 -60.9482 TS 36 0 4 312
1967249N14303 1967 95 NA CS BEULAH 1967-09-07 18:00:00 TS 14.1500 -61.1000 40 hurdat_atl main 391 380 O_____________ hurdat_atl AL131967 14.3000 -61.1000 TS 40 0 4 307
1967249N14303 1967 95 NA CS BEULAH 1967-09-07 21:00:00 TS 14.2612 -61.2917 main 403 403 P_____________ AL131967 14.4299 -61.2909 TS 42 0 4 297
1967249N14303 1967 95 NA CS BEULAH 1967-09-08 00:00:00 TS 14.3500 -61.5000 45 hurdat_atl main 414 414 O_____________ hurdat_atl AL131967 14.5000 -61.5000 TS 45 0 4 293
1967249N14303 1967 95 NA CS BEULAH 1967-09-08 03:00:00 TS 14.4363 -61.7075 main 414 414 P_____________ AL131967 14.5650 -61.7075 TS 47 0 4 291
1967249N14303 1967 95 NA CS BEULAH 1967-09-08 06:00:00 TS 14.5000 -61.9000 50 hurdat_atl main 426 426 O_____________ hurdat_atl AL131967 14.6000 -61.9000 TS 50 0 3 285
1967249N14303 1967 95 NA CS BEULAH 1967-09-08 09:00:00 TS 14.5211 -62.0276 main 426 425 P_____________ AL131967 14.5924 -62.0276 TS 55 0 3 280
1967249N14303 1967 95 NA CS BEULAH 1967-09-08 12:00:00 TS 14.5500 -62.2000 60 996 hurdat_atl main 436 425 O_____________ hurdat_atl AL131967 14.6000 -62.2000 TS 60 996 0 5 283
1967249N14303 1967 95 NA CS BEULAH 1967-09-08 15:00:00 TS 14.6275 -62.5163 main 436 436 P_____________ AL131967 14.6701 -62.5200 TS 67 992 1 7 286
1967249N14303 1967 95 NA CS BEULAH 1967-09-08 18:00:00 TS 14.7500 -62.9000 75 989 hurdat_atl main 459 437 O_____________ hurdat_atl AL131967 14.8000 -62.9000 HU 75 989 1 8 292
1967249N14303 1967 95 NA CS BEULAH 1967-09-08 21:00:00 TS 14.9175 -63.2750 main 437 400 P_____________ AL131967 14.9924 -63.2500 HU 77 1 8 296
1967249N14303 1967 95 NA CS BEULAH 1967-09-09 00:00:00 TS 15.1000 -63.6500 80 hurdat_atl main 400 367 O_____________ hurdat_atl AL131967 15.2000 -63.6000 HU 80 1 8 295
1967249N14303 1967 95 NA CS BEULAH 1967-09-09 03:00:00 TS 15.2461 -63.9964 main 367 331 P_____________ AL131967 15.3574 -63.9351 HU 85 2 7 294
1967249N14303 1967 95 NA CS BEULAH 1967-09-09 06:00:00 TS 15.4000 -64.3500 90 hurdat_atl main 331 293 O_____________ hurdat_atl AL131967 15.5000 -64.3000 HU 90 2 8 296
1967249N14303 1967 95 NA CS BEULAH 1967-09-09 09:00:00 TS 15.5849 -64.7314 main 293 257 P_____________ AL131967 15.6350 -64.7351 HU 95 2 9 297
1967249N14303 1967 95 NA CS BEULAH 1967-09-09 12:00:00 TS 15.8000 -65.1500 100 hurdat_atl main 257 222 O_____________ hurdat_atl AL131967 15.8000 -65.2000 HU 100 3 10 298
1967249N14303 1967 95 NA CS BEULAH 1967-09-09 15:00:00 TS 16.0463 -65.6362 main 222 179 P_____________ AL131967 16.0425 -65.6649 HU 105 3 10 299
1967249N14303 1967 95 NA CS BEULAH 1967-09-09 18:00:00 TS 16.3000 -66.1000 110 950 hurdat_atl main 179 157 O_____________ hurdat_atl AL131967 16.3000 -66.1000 HU 110 950 3 9 302
1967249N14303 1967 95 NA CS BEULAH 1967-09-09 21:00:00 TS 16.5248 -66.4328 main 158 135 P_____________ AL131967 16.4998 -66.4577 HU 117 945 4 8 306
1967249N14303 1967 95 NA CS BEULAH 1967-09-10 00:00:00 TS 16.7500 -66.7500 125 940 hurdat_atl main 124 100 O_____________ hurdat_atl AL131967 16.7000 -66.8000 HU 125 940 4 9 305
1967249N14303 1967 95 NA CS BEULAH 1967-09-10 03:00:00 TS 17.0151 -67.1749 main 100 81 P_____________ AL131967 16.9575 -67.1999 HU 122 941 4 10 302
1967249N14303 1967 95 NA CS BEULAH 1967-09-10 06:00:00 TS 17.2500 -67.6000 120 hurdat_atl main 79 79 I_____________ hurdat_atl AL131967 17.2000 -67.6000 HU 120 943 4 8 298
1967249N14303 1967 95 NA CS BEULAH 1967-09-10 09:00:00 TS 17.4011 -67.9327 main 92 89 P_____________ AL131967 17.3724 -67.9576 HU 115 945 4 7 292
1967249N14303 1967 95 NA CS BEULAH 1967-09-10 12:00:00 TS 17.5000 -68.2500 110 947 hurdat_atl main 89 67 O_____________ hurdat_atl AL131967 17.5000 -68.3000 HU 110 947 3 7 286
1967249N14303 1967 95 NA CS BEULAH 1967-09-10 15:00:00 TS 17.5862 -68.6063 main 67 67 P_____________ AL131967 17.6149 -68.6351 HU 107 949 3 7 282
1967249N14303 1967 95 NA CS BEULAH 1967-09-10 18:00:00 TS 17.6500 -69.0000 105 951 hurdat_atl main 59 59 O_____________ hurdat_atl AL131967 17.7000 -69.0000 HU 105 951 3 8 279
1967249N14303 1967 95 NA CS BEULAH 1967-09-10 21:00:00 TS 17.7150 -69.4425 main 81 64 P_____________ AL131967 17.7725 -69.4425 HU 100 959 3 9 277
1967249N14303 1967 95 NA CS BEULAH 1967-09-11 00:00:00 TS 17.7500 -69.9000 95 967 hurdat_atl main 54 45 O_____________ hurdat_atl AL131967 17.8000 -69.9000 HU 95 967 2 8 272
1967249N14303 1967 95 NA CS BEULAH 1967-09-11 03:00:00 TS 17.7399 -70.3325 main 55 54 P_____________ AL131967 17.7723 -70.3000 HU 90 2 8 266
1967249N14303 1967 95 NA CS BEULAH 1967-09-11 06:00:00 TS 17.7000 -70.7500 85 hurdat_atl main 54 23 O_____________ hurdat_atl AL131967 17.7000 -70.7000 HU 85 2 8 263
1967249N14303 1967 95 NA CS BEULAH 1967-09-11 09:00:00 TS 17.6498 -71.1388 main 30 0 P_____________ AL131967 17.5924 -71.1426 HU 82 1 8 263
1967249N14303 1967 95 NA CS BEULAH 1967-09-11 12:00:00 TS 17.6000 -71.5500 80 hurdat_atl main 10 21 O_____________ hurdat_atl AL131967 17.5000 -71.6000 HU 80 1 9 265
1967249N14303 1967 95 NA CS BEULAH 1967-09-11 15:00:00 TS 17.5676 -72.0538 main 57 57 P_____________ AL131967 17.4849 -72.0574 HU 77 1 10 267
1967249N14303 1967 95 NA CS BEULAH 1967-09-11 18:00:00 TS 17.5500 -72.5500 75 978 hurdat_atl main 64 67 O_____________ hurdat_atl AL131967 17.5000 -72.5000 HU 75 978 1 8 269
1967249N14303 1967 95 NA CS BEULAH 1967-09-11 21:00:00 TS 17.5498 -72.9362 main 67 59 P_____________ AL131967 17.4998 -72.9000 HU 70 982 1 7 270
1967249N14303 1967 95 NA CS BEULAH 1967-09-12 00:00:00 TS 17.5500 -73.3000 65 hurdat_atl main 67 56 I_____________ hurdat_atl AL131967 17.5000 -73.3000 HU 65 987 1 7 269
1967249N14303 1967 95 NA CS BEULAH 1967-09-12 03:00:00 TS 17.5362 -73.7100 main 56 55 P_____________ AL131967 17.5074 -73.7424 HU 60 992 0 8 266
1967249N14303 1967 95 NA CS BEULAH 1967-09-12 06:00:00 TS 17.5000 -74.1500 55 997 hurdat_atl main 59 59 O_____________ hurdat_atl AL131967 17.5000 -74.2000 TS 55 997 0 9 267
1967249N14303 1967 95 NA CS BEULAH 1967-09-12 09:00:00 TS 17.4848 -74.6058 main 91 91 P_____________ AL131967 17.5173 -74.6345 TS 50 998 0 9 261
1967249N14303 1967 95 NA CS BEULAH 1967-09-12 12:00:00 TS 17.3500 -75.1000 45 1000 hurdat_atl main 125 115 O_____________ hurdat_atl AL131967 17.4000 -75.1000 TS 45 1000 0 12 242
1967249N14303 1967 95 NA CS BEULAH 1967-09-12 15:00:00 TS 16.9364 -75.6770 main 123 119 P_____________ AL131967 16.9652 -75.6733 TS 45 999 0 14 231
1967249N14303 1967 95 NA CS BEULAH 1967-09-12 18:00:00 TS 16.5000 -76.2000 45 998 hurdat_atl main 156 156 O_____________ hurdat_atl AL131967 16.5000 -76.2000 TS 45 998 0 10 233
1967249N14303 1967 95 NA CS BEULAH 1967-09-12 21:00:00 TS 16.3048 -76.5446 main 173 165 P_____________ AL131967 16.3048 -76.5445 TS 40 1001 0 7 242
1967249N14303 1967 95 NA CS BEULAH 1967-09-13 00:00:00 TS 16.2000 -76.8000 35 1004 hurdat_atl main 173 170 O_____________ hurdat_atl AL131967 16.2000 -76.8000 TS 35 1004 0 5 244
1967249N14303 1967 95 NA CS BEULAH 1967-09-13 03:00:00 TS 16.0637 -77.0575 main 179 179 P_____________ AL131967 16.0349 -77.0575 TS 37 1003 0 5 242
1967249N14303 1967 95 NA CS BEULAH 1967-09-13 06:00:00 TS 15.9500 -77.3000 40 1002 hurdat_atl main 190 190 O_____________ hurdat_atl AL131967 15.9000 -77.3000 TS 40 1002 0 5 247
1967249N14303 1967 95 NA CS BEULAH 1967-09-13 09:00:00 TS 15.8563 -77.5612 main 205 205 P_____________ AL131967 15.8275 -77.5575 TS 42 999 0 5 253
1967249N14303 1967 95 NA CS BEULAH 1967-09-13 12:00:00 TS 15.8000 -77.8000 45 997 hurdat_atl main 222 222 O_____________ hurdat_atl AL131967 15.8000 -77.8000 TS 45 997 0 4 260
1967249N14303 1967 95 NA CS BEULAH 1967-09-13 15:00:00 TS 15.7812 -77.9825 main 229 229 P_____________ AL131967 15.7850 -78.0075 TS 45 997 0 3 270
1967249N14303 1967 95 NA CS BEULAH 1967-09-13 18:00:00 TS 15.8000 -78.1500 45 997 hurdat_atl main 233 233 O_____________ hurdat_atl AL131967 15.8000 -78.2000 TS 45 997 0 3 280
1967249N14303 1967 95 NA CS BEULAH 1967-09-13 21:00:00 TS 15.8425 -78.3387 main 242 235 P_____________ AL131967 15.8425 -78.3925 TS 45 996 0 4 285
1967249N14303 1967 95 NA CS BEULAH 1967-09-14 00:00:00 TS 15.9000 -78.5500 45 996 hurdat_atl main 239 243 O_____________ hurdat_atl AL131967 15.9000 -78.6000 TS 45 996 0 4 281
1967249N14303 1967 95 NA CS BEULAH 1967-09-14 03:00:00 TS 15.9313 -78.7963 main 252 248 P_____________ AL131967 15.9275 -78.8501 TS 45 997 0 5 282
1967249N14303 1967 95 NA CS BEULAH 1967-09-14 06:00:00 TS 16.0000 -79.0500 45 998 hurdat_atl main 253 246 O_____________ hurdat_atl AL131967 16.0000 -79.1000 TS 45 998 0 5 296
1967249N14303 1967 95 NA CS BEULAH 1967-09-14 09:00:00 TS 16.1487 -79.2675 main 253 237 P_____________ AL131967 16.1774 -79.2925 TS 52 994 0 6 309
1967249N14303 1967 95 NA CS BEULAH 1967-09-14 12:00:00 TS 16.3500 -79.5000 60 991 hurdat_atl main 232 226 O_____________ hurdat_atl AL131967 16.4000 -79.5000 TS 60 991 0 6 311
1967249N14303 1967 95 NA CS BEULAH 1967-09-14 15:00:00 TS 16.5674 -79.7663 main 232 230 P_____________ AL131967 16.5999 -79.7626 TS 62 990 0 7 308
1967249N14303 1967 95 NA CS BEULAH 1967-09-14 18:00:00 TS 16.8000 -80.1000 65 989 hurdat_atl main 238 238 O_____________ hurdat_atl AL131967 16.8000 -80.1000 HU 65 989 1 9 302
1967249N14303 1967 95 NA CS BEULAH 1967-09-14 21:00:00 TS 17.0326 -80.5424 main 259 259 P_____________ AL131967 17.0001 -80.5350 HU 67 987 1 10 298
1967249N14303 1967 95 NA CS BEULAH 1967-09-15 00:00:00 TS 17.2500 -81.0000 70 985 hurdat_atl main 293 293 O_____________ hurdat_atl AL131967 17.2000 -81.0000 HU 70 985 1 9 297
1967249N14303 1967 95 NA CS BEULAH 1967-09-15 03:00:00 TS 17.4286 -81.3614 main 317 312 P_____________ AL131967 17.3999 -81.4151 HU 70 983 1 8 298
1967249N14303 1967 95 NA CS BEULAH 1967-09-15 06:00:00 TS 17.6000 -81.7000 70 hurdat_atl main 314 307 I_____________ hurdat_atl AL131967 17.6000 -81.8000 HU 70 982 1 8 298
1967249N14303 1967 95 NA CS BEULAH 1967-09-15 09:00:00 TS 17.7924 -82.0676 main 312 307 P_____________ AL131967 17.7999 -82.1576 HU 72 981 1 8 299
1967249N14303 1967 95 NA CS BEULAH 1967-09-15 12:00:00 TS 18.0000 -82.4500 75 980 hurdat_atl main 318 308 O_____________ hurdat_atl AL131967 18.0000 -82.5000 HU 75 980 1 9 300
1967249N14303 1967 95 NA CS BEULAH 1967-09-15 15:00:00 TS 18.2363 -82.8686 main 307 307 P_____________ AL131967 18.2075 -82.8575 HU 77 979 1 9 301
1967249N14303 1967 95 NA CS BEULAH 1967-09-15 18:00:00 TS 18.4500 -83.2500 80 978 hurdat_atl main 323 316 O_____________ hurdat_atl AL131967 18.4000 -83.2000 HU 80 978 1 7 299
1967249N14303 1967 95 NA CS BEULAH 1967-09-15 21:00:00 TS 18.5748 -83.5078 main 321 316 P_____________ AL131967 18.5499 -83.5002 HU 82 976 1 5 298
1967249N14303 1967 95 NA CS BEULAH 1967-09-16 00:00:00 TS 18.7000 -83.7500 85 975 hurdat_atl main 316 306 O_____________ hurdat_atl AL131967 18.7000 -83.8000 HU 85 975 2 6 302
1967249N14303 1967 95 NA CS BEULAH 1967-09-16 03:00:00 TS 18.9138 -84.0887 main 310 300 P_____________ AL131967 18.8925 -84.1500 HU 87 972 2 8 304
1967249N14303 1967 95 NA CS BEULAH 1967-09-16 06:00:00 TS 19.1500 -84.4500 90 970 hurdat_atl main 290 268 O_____________ hurdat_atl AL131967 19.1000 -84.5000 HU 90 970 2 8 304
1967249N14303 1967 95 NA CS BEULAH 1967-09-16 09:00:00 TS 19.3612 -84.7863 main 268 237 P_____________ AL131967 19.3074 -84.8076 HU 92 967 2 7 303
1967249N14303 1967 95 NA CS BEULAH 1967-09-16 12:00:00 TS 19.5500 -85.1000 95 964 hurdat_atl main 230 199 O_____________ hurdat_atl AL131967 19.5000 -85.1000 HU 95 964 2 7 302
1967249N14303 1967 95 NA CS BEULAH 1967-09-16 15:00:00 TS 19.7037 -85.3789 main 199 175 P_____________ AL131967 19.6499 -85.4001 HU 95 965 2 6 300
1967249N14303 1967 95 NA CS BEULAH 1967-09-16 18:00:00 TS 19.8500 -85.6500 95 967 hurdat_atl main 168 137 O_____________ hurdat_atl AL131967 19.8000 -85.7000 HU 95 967 2 6 301
1967249N14303 1967 95 NA CS BEULAH 1967-09-16 21:00:00 TS 20.0074 -85.9110 main 137 99 P_____________ AL131967 19.9725 -85.9593 HU 100 962 3 7 302
1967249N14303 1967 95 NA CS BEULAH 1967-09-17 00:00:00 TS 20.2000 -86.2500 105 hurdat_atl main 99 49 I_____________ hurdat_atl AL131967 20.2000 -86.3000 HU 105 958 3 9 300
1967249N14303 1967 95 NA CS BEULAH 1967-09-17 03:00:00 TS 20.4462 -86.7238 110 954 hurdat_atl main 49 10 O_____________ hurdat_atl AL131967 20.5000 -86.8000 L HU 110 954 3 11 290
1967249N14303 1967 95 NA CS BEULAH 1967-09-17 05:00:00 TS 20.5153 -87.1529 110 hurdat_atl main 10 0 O_____________ hurdat_atl AL131967 20.5000 -87.3000 L HU 110 3 11 286
1967249N14303 1967 95 NA NA BEULAH 1967-09-17 06:00:00 TS 20.6000 -87.3000 110 hurdat_atl main 0 0 O_____________ hurdat_atl AL131967 20.6000 -87.4000 HU 110 3 11 295
1967249N14303 1967 95 NA NA BEULAH 1967-09-17 09:00:00 TS 20.8242 -87.8699 main 0 0 P_____________ AL131967 20.8332 -87.8825 HU 90 2 12 290
1967249N14303 1967 95 NA NA BEULAH 1967-09-17 12:00:00 TS 21.0000 -88.5000 70 hurdat_atl main 0 0 O_____________ hurdat_atl AL131967 21.0000 -88.5000 HU 70 1 11 286
1967249N14303 1967 95 NA NA BEULAH 1967-09-17 15:00:00 TS 21.1359 -89.0040 main 0 0 P_____________ AL131967 21.1648 -89.0501 HU 67 1 10 285
1967249N14303 1967 95 NA NA BEULAH 1967-09-17 18:00:00 TS 21.2500 -89.5000 65 hurdat_atl main 11 0 O_____________ hurdat_atl AL131967 21.3000 -89.6000 HU 65 1 10 284
1967249N14303 1967 95 NA GM BEULAH 1967-09-17 21:00:00 TS 21.3824 -90.0675 main 30 30 P_____________ AL131967 21.4074 -90.1576 HU 70 1 11 283
1967249N14303 1967 95 NA GM BEULAH 1967-09-18 00:00:00 TS 21.5000 -90.6500 75 978 hurdat_atl main 60 60 O_____________ hurdat_atl AL131967 21.5000 -90.7000 HU 75 978 1 11 280
1967249N14303 1967 95 NA GM BEULAH 1967-09-18 03:00:00 TS 21.5786 -91.2152 main 108 108 P_____________ AL131967 21.5998 -91.2076 HU 77 978 1 10 278
1967249N14303 1967 95 NA GM BEULAH 1967-09-18 06:00:00 TS 21.6500 -91.7500 80 978 hurdat_atl main 169 165 O_____________ hurdat_atl AL131967 21.7000 -91.7000 HU 80 978 1 10 280
1967249N14303 1967 95 NA GM BEULAH 1967-09-18 09:00:00 TS 21.7423 -92.2363 main 207 207 P_____________ AL131967 21.7999 -92.2076 HU 82 974 1 9 283
1967249N14303 1967 95 NA GM BEULAH 1967-09-18 12:00:00 TS 21.8500 -92.7000 85 970 hurdat_atl main 263 260 O_____________ hurdat_atl AL131967 21.9000 -92.7000 HU 85 970 2 9 284
1967249N14303 1967 95 NA GM BEULAH 1967-09-18 15:00:00 TS 21.9676 -93.2012 main 316 316 P_____________ AL131967 21.9924 -93.1726 HU 87 968 2 9 286
1967249N14303 1967 95 NA GM BEULAH 1967-09-18 18:00:00 TS 22.1000 -93.6500 90 967 hurdat_atl main 368 346 O_____________ hurdat_atl AL131967 22.1000 -93.6000 HU 90 967 2 8 290
1967249N14303 1967 95 NA GM BEULAH 1967-09-18 21:00:00 TS 22.2348 -93.9764 main 346 329 P_____________ AL131967 22.2274 -93.9726 HU 92 965 2 6 298
1967249N14303 1967 95 NA GM BEULAH 1967-09-19 00:00:00 TS 22.4000 -94.2500 95 963 hurdat_atl main 321 305 O_____________ hurdat_atl AL131967 22.4000 -94.3000 HU 95 963 2 6 306
1967249N14303 1967 95 NA GM BEULAH 1967-09-19 03:00:00 TS 22.6061 -94.5352 main 309 290 P_____________ AL131967 22.6424 -94.6000 HU 102 956 3 7 309
1967249N14303 1967 95 NA GM BEULAH 1967-09-19 06:00:00 TS 22.8500 -94.8500 110 949 hurdat_atl main 286 265 O_____________ hurdat_atl AL131967 22.9000 -94.9000 HU 110 949 3 9 308
1967249N14303 1967 95 NA GM BEULAH 1967-09-19 09:00:00 TS 23.1290 -95.2685 main 255 224 P_____________ AL131967 23.1076 -95.2650 HU 117 942 4 9 307
1967249N14303 1967 95 NA GM BEULAH 1967-09-19 12:00:00 TS 23.4000 -95.6500 125 hurdat_atl main 214 193 I_____________ hurdat_atl AL131967 23.3000 -95.6000 HU 125 936 4 7 311
1967249N14303 1967 95 NA GM BEULAH 1967-09-19 15:00:00 TS 23.6073 -95.8665 main 193 183 P_____________ AL131967 23.4849 -95.8302 HU 130 929 4 5 321
1967249N14303 1967 95 NA GM BEULAH 1967-09-19 18:00:00 TS 23.8000 -96.0000 135 923 hurdat_atl main 183 171 O_____________ hurdat_atl AL131967 23.7000 -96.0000 HU 135 923 4 4 329
1967249N14303 1967 95 NA GM BEULAH 1967-09-19 21:00:00 TS 23.9912 -96.1178 main 171 155 P_____________ AL131967 23.9700 -96.1576 HU 137 923 5 5 333
1967249N14303 1967 95 NA GM BEULAH 1967-09-20 00:00:00 TS 24.2500 -96.2500 140 923 hurdat_atl main 143 119 O_____________ hurdat_atl AL131967 24.3000 -96.3000 HU 140 923 5 7 335
1967249N14303 1967 95 NA GM BEULAH 1967-09-20 03:00:00 TS 24.6488 -96.4561 main 110 68 P_____________ AL131967 24.6849 -96.4278 HU 132 927 4 9 334
1967249N14303 1967 95 NA GM BEULAH 1967-09-20 06:00:00 TS 25.1000 -96.7000 125 931 hurdat_atl main 68 32 O_____________ hurdat_atl AL131967 25.1000 -96.6000 HU 125 931 4 10 333
1967249N14303 1967 95 NA GM BEULAH 1967-09-20 09:00:00 TS 25.5225 -96.9426 main 32 0 P_____________ AL131967 25.5150 -96.8774 HU 117 935 4 9 331
1967249N14303 1967 95 NA NA BEULAH 1967-09-20 12:00:00 TS 25.9000 -97.2000 110 940 hurdat_atl main 0 0 O_____________ hurdat_atl AL131967 25.9000 -97.2000 L HU 110 940 3 8 323
1967249N14303 1967 95 NA NA BEULAH 1967-09-20 15:00:00 TS 26.1788 -97.4827 main 0 0 P_____________ AL131967 26.2150 -97.5152 HU 97 946 3 7 318
1967249N14303 1967 95 NA NA BEULAH 1967-09-20 18:00:00 TS 26.4500 -97.7500 85 952 hurdat_atl main 0 0 O_____________ hurdat_atl AL131967 26.5000 -97.8000 HU 85 952 2 8 327
1967249N14303 1967 95 NA NA BEULAH 1967-09-20 21:00:00 TS 26.8399 -97.9687 main 0 0 P_____________ AL131967 26.8224 -98.0226 HU 80 1 8 335
1967249N14303 1967 95 NA NA BEULAH 1967-09-21 00:00:00 TS 27.2000 -98.1500 75 hurdat_atl main 0 0 O_____________ hurdat_atl AL131967 27.1000 -98.2000 HU 75 1 7 333
1967249N14303 1967 95 NA NA BEULAH 1967-09-21 03:00:00 TS 27.4275 -98.3114 main 0 0 P_____________ AL131967 27.2875 -98.3651 HU 67 1 4 323
1967249N14303 1967 95 NA NA BEULAH 1967-09-21 06:00:00 TS 27.5500 -98.4500 60 hurdat_atl main 0 0 O_____________ hurdat_atl AL131967 27.4000 -98.5000 TS 60 0 3 311
1967249N14303 1967 95 NA NA BEULAH 1967-09-21 09:00:00 TS 27.6274 -98.5675 main 0 0 P_____________ AL131967 27.4875 -98.6000 TS 52 0 2 283
1967249N14303 1967 95 NA NA BEULAH 1967-09-21 12:00:00 TS 27.6000 -98.7000 45 hurdat_atl main 0 0 O_____________ hurdat_atl AL131967 27.5000 -98.7000 TS 45 0 3 240
1967249N14303 1967 95 NA NA BEULAH 1967-09-21 15:00:00 TS 27.4588 -98.8964 main 0 0 P_____________ AL131967 27.4300 -98.8425 TS 40 0 5 225
1967249N14303 1967 95 NA NA BEULAH 1967-09-21 18:00:00 TS 27.2500 -99.1000 35 hurdat_atl main 0 0 O_____________ hurdat_atl AL131967 27.3000 -99.0000 TS 35 0 5 218
1967249N14303 1967 95 NA NA BEULAH 1967-09-21 21:00:00 TS 27.0500 -99.2612 main 0 0 P_____________ AL131967 27.1725 -99.1499 TS 32 -1 5 214
1967249N14303 1967 95 NA NA BEULAH 1967-09-22 00:00:00 TS 26.8500 -99.4000 30 hurdat_atl main 0 0 O_____________ hurdat_atl AL131967 27.0000 -99.3000 TD 30 -1 4 213
1967249N14303 1967 95 NA NA BEULAH 1967-09-22 03:00:00 TS 26.6862 -99.5249 main 0 0 P_____________ AL131967 26.7800 -99.4499 TD 30 -1 4 212
1967249N14303 1967 95 NA NA BEULAH 1967-09-22 06:00:00 TS 26.5000 -99.6500 30 hurdat_atl main 0 0 O_____________ hurdat_atl AL131967 26.5000 -99.6000 TD 30 -1 5 209
1967249N14303 1967 95 NA NA BEULAH 1967-09-22 09:00:00 TS 26.2400 -99.8038 main 0 0 P_____________ AL131967 26.1725 -99.7651 TD 30 -1 6 205
1967249N14303 1967 95 NA NA BEULAH 1967-09-22 12:00:00 TS 25.9286 -99.9429 30 hurdat_atl main 0 0 O_____________ hurdat_atl AL131967 25.8000 -99.9000 TD 30 -1 7 197
1967249N14303 1967 95 NA NA BEULAH 1967-09-22 15:00:00 TS 25.5833 -100.032 main 0 0 P_____________ AL131967 25.4075 -99.9724 TD 30 -1 8 188
1967249N14303 1967 95 NA NA BEULAH 1967-09-22 18:00:00 TS 25.1600 -100.060 30 hurdat_atl main 0 0 O_____________ hurdat_atl AL131967 25.0000 -100.000 TD 30 -1 10 179
1967249N14303 1967 95 NA NA BEULAH 1967-09-22 21:00:00 TS 24.6000 -100.030 main 0 0 P_____________ AL131967 24.6000 -100.030 TD 27 -1 10 176
1967249N14303 1967 95 NA NA BEULAH 1967-09-23 00:00:00 TS 24.2000 -100.000 25 hurdat_atl main 0 0 O_____________ hurdat_atl AL131967 24.2000 -100.000 TD 25 -1 8 171
1967249N14303 1967 95 NA NA BEULAH 1967-09-23 03:00:00 TS 23.7924 -99.8950 main 0 0 P_____________ AL131967 23.7924 -99.8950 TD 22 -1 9 161
1967249N14303 1967 95 NA NA BEULAH 1967-09-23 06:00:00 TS 23.4000 -99.7000 20 hurdat_atl main 0 0 O_____________ hurdat_atl AL131967 23.4000 -99.7000 TD 20 -1 9 151
1967249N14303 1967 95 NA NA BEULAH 1967-09-23 09:00:00 TS 23.0424 -99.4376 main 0 0 P_____________ AL131967 23.0424 -99.4376 TD 20 -1 9 142
1967249N14303 1967 95 NA NA BEULAH 1967-09-23 12:00:00 TS 22.7000 -99.1000 20 hurdat_atl main 0 0 O_____________ hurdat_atl AL131967 22.7000 -99.1000 TD 20 -1 10 137
1967249N14303 1967 95 NA NA BEULAH 1967-09-23 15:00:00 TS 22.3350 -98.7150 main 0 0 P_____________ AL131967 22.3350 -98.7150 TD 22 -1 10 133
1967249N14303 1967 95 NA NA BEULAH 1967-09-23 18:00:00 TS 22.0000 -98.3000 25 hurdat_atl main 0 0 O_____________ hurdat_atl AL131967 22.0000 -98.3000 TD 25 -1 10 128
1967249N14303 1967 95 NA NA BEULAH 1967-09-23 21:00:00 TS 21.7349 -97.9003 main 0 0 P_____________ AL131967 21.7349 -97.9003 TD 27 -1 9 124
1967249N14303 1967 95 NA GM BEULAH 1967-09-24 00:00:00 TS 21.5000 -97.5000 30 1001 hurdat_atl main 10 0 O_____________ hurdat_atl AL131967 21.5000 -97.5000 TD 30 1001 -1 9 123
1967249N14303 1967 95 NA GM BEULAH 1967-09-24 03:00:00 TS 21.2552 -97.0997 main 31 31 P_____________ AL131967 21.2552 -97.0997 TD 27 -1 9 124
1967249N14303 1967 95 NA GM BEULAH 1967-09-24 06:00:00 TS 21.0000 -96.7000 25 hurdat_atl main 61 O_____________ hurdat_atl AL131967 21.0000 -96.7000 TD 25 -1 9 124

IBTrACS Databaseについて

本データベースは、米国NOAAが公開する1842年以降の世界の熱帯低気圧のベストトラックデータアーカイブInternational Best Track Archive for Climate Stewardship (IBTrACS)を、ウェブで閲覧しやすい形式に変換したものです。

最終更新日:2022-05-24